Archimedes — ZCDY4 — position and weather

sailwx.info

Track history (hours):
 
Tides and Currents Weather Stations Pressure Air Temp Water Temp Dewpoint Dewpoint Depression Visibility Wind Speed Wind Dir Waves Ship Positions

Archimedes

Last reported at 2018-Jul-07 20:08 UTC. Time now 2018-Jul-21 19:22 UTC.
Position N 57°21' W 006°06'.
Warning: this ship's position is 13 days out of date.

Length 68 m; draft 3.5 m.

Type: Pleasure craft. MMSI: 310563000.

Date/timePositionNaut miles runAvg speedWind from/ knotsBaromVisibWave heightAir tempDewpointWater temp
2018-Jul-07 20:08N 57°21' W 006°06'215.7
2018-Jul-07 20:00N 57°20' W 006°04'714.3
2018-Jul-07 19:29N 57°18' W 005°51'612.7
2018-Jul-07 19:00N 57°16' W 005°40'2 0.2
2018-Jul-07 10:25N 57°14' W 005°40'4 0.8
2018-Jul-07 05:06N 57°16' W 005°32'0 0.0
2018-Jul-07 02:06N 57°16' W 005°32'0 0.1
2018-Jul-07 01:54N 57°16' W 005°32'0 0.0
2018-Jul-06 15:53N 57°16' W 005°32'50 4.9
2018-Jul-06 05:39N 56°27' W 005°38'212.4
2018-Jul-06 05:30N 56°26' W 005°35'3 0.1
2018-Jul-05 06:47N 56°25' W 005°29'46 1.8
2018-Jul-04 04:58N 55°43' W 006°00'714.8
2018-Jul-04 04:30N 55°36' W 006°04'5 9.3
2018-Jul-04 04:00N 55°38' W 006°12'0 0.1
2018-Jul-04 03:30N 55°38' W 006°12'0 0.0
2018-Jul-04 03:01N 55°38' W 006°12'0 0.0
2018-Jul-04 02:22N 55°38' W 006°12'0 0.0
2018-Jul-04 01:49N 55°38' W 006°12'0 0.0
2018-Jul-04 01:22N 55°38' W 006°12'0 0.0
2018-Jul-04 00:55N 55°38' W 006°12'0 0.0
2018-Jul-04 00:25N 55°38' W 006°12'0 0.0
2018-Jul-03 23:55N 55°38' W 006°12'0 0.0
2018-Jul-03 23:25N 55°38' W 006°12'0 0.0
2018-Jul-03 22:55N 55°38' W 006°12'0 0.0
2018-Jul-03 22:25N 55°38' W 006°12'0 0.0
2018-Jul-03 21:58N 55°38' W 006°12'0 0.0
2018-Jul-03 21:25N 55°38' W 006°12'0 0.0
2018-Jul-03 20:58N 55°38' W 006°12'2 4.0
2018-Jul-03 20:28N 55°36' W 006°11'715.7
2018-Jul-03 20:00N 55°30' W 006°04'816.6
2018-Jul-03 19:30N 55°23' W 005°56'917.3
2018-Jul-03 19:00N 55°16' W 005°46'37 0.8
2018-Jul-01 18:56N 55°43' W 004°60'716.0
2018-Jul-01 18:30N 55°50' W 004°57'815.5
2018-Jul-01 18:00N 55°57' W 004°53'5 0.1
2018-Jun-29 18:21N 55°57' W 004°44'0 0.0
2018-Jun-29 17:57N 55°57' W 004°44'0 0.0
2018-Jun-29 17:21N 55°57' W 004°44'0 0.0
2018-Jun-29 15:15N 55°57' W 004°44'0 0.0
2018-Jun-29 14:51N 55°57' W 004°44'0 0.0
2018-Jun-29 14:27N 55°57' W 004°44'0 0.0
2018-Jun-29 13:57N 55°57' W 004°44'0 0.0
2018-Jun-29 13:27N 55°57' W 004°44'0 0.0
2018-Jun-29 12:57N 55°57' W 004°44'0 0.0
2018-Jun-29 12:27N 55°57' W 004°44'0 0.0
2018-Jun-29 12:00N 55°57' W 004°44'0 0.0
2018-Jun-29 11:27N 55°57' W 004°44'0 0.0
2018-Jun-29 10:57N 55°57' W 004°44'0 0.0
2018-Jun-29 10:30N 55°57' W 004°44'0 0.0
2018-Jun-29 09:57N 55°57' W 004°44'0 0.0
2018-Jun-29 09:27N 55°57' W 004°44'0 0.0
2018-Jun-29 09:00N 55°57' W 004°44'0 0.0
2018-Jun-29 08:30N 55°57' W 004°44'0 0.0
2018-Jun-29 07:57N 55°57' W 004°44'0 0.0
2018-Jun-29 07:30N 55°57' W 004°44'0 0.0
2018-Jun-29 06:57N 55°57' W 004°44'0 0.0
2018-Jun-29 06:27N 55°57' W 004°44'0 0.0
2018-Jun-29 06:00N 55°57' W 004°44'0 0.0
2018-Jun-29 05:30N 55°57' W 004°44'0 0.0
2018-Jun-29 05:00N 55°57' W 004°44'0 0.0
2018-Jun-29 04:30N 55°57' W 004°44'0 0.0
2018-Jun-29 04:00N 55°57' W 004°44'0 0.0
2018-Jun-29 03:30N 55°57' W 004°44'0 0.0
2018-Jun-29 03:00N 55°57' W 004°44'0 0.0
2018-Jun-29 02:30N 55°57' W 004°44'0 0.0
2018-Jun-29 02:00N 55°57' W 004°44'0 0.0
2018-Jun-29 01:30N 55°57' W 004°44'0 0.0
2018-Jun-29 01:00N 55°57' W 004°44'0 0.0
2018-Jun-29 00:30N 55°57' W 004°44'0 0.0
2018-Jun-29 00:00N 55°57' W 004°44'0 0.0
2018-Jun-28 23:24N 55°57' W 004°44'0 0.0
2018-Jun-28 22:51N 55°57' W 004°44'0 0.0
2018-Jun-28 22:27N 55°57' W 004°44'0 0.0
2018-Jun-28 21:57N 55°57' W 004°44'0 0.0
2018-Jun-28 21:27N 55°57' W 004°44'0 0.0
2018-Jun-28 20:57N 55°57' W 004°44'0 0.0
2018-Jun-28 20:30N 55°57' W 004°44'0 0.0
2018-Jun-28 20:00N 55°57' W 004°44'0 0.0
2018-Jun-28 19:30N 55°57' W 004°44'0 0.0
2018-Jun-28 19:00N 55°57' W 004°44'0 0.0
2018-Jun-28 17:27N 55°57' W 004°44'0 0.0
2018-Jun-28 14:57N 55°57' W 004°44'0 0.0
2018-Jun-28 14:27N 55°57' W 004°44'0 0.0
2018-Jun-28 13:57N 55°57' W 004°44'0 0.0
2018-Jun-28 13:30N 55°57' W 004°44'0 0.0
2018-Jun-28 12:57N 55°57' W 004°44'0 0.0
2018-Jun-28 12:30N 55°57' W 004°44'0 0.0
2018-Jun-28 12:00N 55°57' W 004°44'0 0.0
2018-Jun-28 11:27N 55°57' W 004°44'0 0.0
2018-Jun-28 11:00N 55°57' W 004°44'0 0.0
2018-Jun-28 10:21N 55°57' W 004°44'0 0.0
2018-Jun-28 09:57N 55°57' W 004°44'0 0.0
2018-Jun-28 09:30N 55°57' W 004°44'0 0.0
2018-Jun-28 09:00N 55°57' W 004°44'0 0.0
2018-Jun-28 08:30N 55°57' W 004°44'0 0.0
2018-Jun-28 07:57N 55°57' W 004°44'0 0.0
2018-Jun-28 07:30N 55°57' W 004°44'0 0.0
2018-Jun-28 07:00N 55°57' W 004°44'0 0.0
2018-Jun-28 06:27N 55°57' W 004°44'0 0.0
2018-Jun-28 06:00N 55°57' W 004°44'0 0.0
2018-Jun-28 05:30N 55°57' W 004°44'0 0.0
2018-Jun-28 05:00N 55°57' W 004°44'0 0.0
2018-Jun-28 04:30N 55°57' W 004°44'0 0.0
2018-Jun-28 03:57N 55°57' W 004°44'0 0.0
2018-Jun-28 03:27N 55°57' W 004°44'0 0.0
2018-Jun-28 03:00N 55°57' W 004°44'0 0.0
2018-Jun-28 02:27N 55°57' W 004°44'0 0.0
2018-Jun-28 02:00N 55°57' W 004°44'0 0.0
2018-Jun-28 01:30N 55°57' W 004°44'0 0.0
2018-Jun-28 01:00N 55°57' W 004°44'0 0.0
2018-Jun-28 00:27N 55°57' W 004°44'0 0.0
2018-Jun-28 00:00N 55°57' W 004°44'0 0.0
2018-Jun-27 23:30N 55°57' W 004°44'0 0.0
2018-Jun-27 23:00N 55°57' W 004°44'0 0.0
2018-Jun-27 22:30N 55°57' W 004°44'0 0.0
2018-Jun-27 22:00N 55°57' W 004°44'0 0.0
2018-Jun-27 21:30N 55°57' W 004°44'0 0.0
2018-Jun-27 21:00N 55°57' W 004°44'0 0.0
2018-Jun-27 20:30N 55°57' W 004°44'  
Track history (hours):
 
Tides and Currents Weather Stations Pressure Air Temp Water Temp Dewpoint Dewpoint Depression Visibility Wind Speed Wind Dir Waves Ship Positions

Archimedes

Last reported at 2018-Jul-07 20:08 UTC. Time now 2018-Jul-21 19:22 UTC.
Position N 57°21' W 006°06'.
Warning: this ship's position is 13 days out of date.

Length 68 m; draft 3.5 m.

Type: Pleasure craft. MMSI: 310563000.

Date/timePositionNaut miles runAvg speedWind from/ knotsBaromVisibWave heightAir tempDewpointWater temp
2018-Jul-07 20:08N 57°21' W 006°06'215.7
2018-Jul-07 20:00N 57°20' W 006°04'714.3
2018-Jul-07 19:29N 57°18' W 005°51'612.7
2018-Jul-07 19:00N 57°16' W 005°40'2 0.2
2018-Jul-07 10:25N 57°14' W 005°40'4 0.8
2018-Jul-07 05:06N 57°16' W 005°32'0 0.0
2018-Jul-07 02:06N 57°16' W 005°32'0 0.1
2018-Jul-07 01:54N 57°16' W 005°32'0 0.0
2018-Jul-06 15:53N 57°16' W 005°32'50 4.9
2018-Jul-06 05:39N 56°27' W 005°38'212.4
2018-Jul-06 05:30N 56°26' W 005°35'3 0.1
2018-Jul-05 06:47N 56°25' W 005°29'46 1.8
2018-Jul-04 04:58N 55°43' W 006°00'714.8
2018-Jul-04 04:30N 55°36' W 006°04'5 9.3
2018-Jul-04 04:00N 55°38' W 006°12'0 0.1
2018-Jul-04 03:30N 55°38' W 006°12'0 0.0
2018-Jul-04 03:01N 55°38' W 006°12'0 0.0
2018-Jul-04 02:22N 55°38' W 006°12'0 0.0
2018-Jul-04 01:49N 55°38' W 006°12'0 0.0
2018-Jul-04 01:22N 55°38' W 006°12'0 0.0
2018-Jul-04 00:55N 55°38' W 006°12'0 0.0
2018-Jul-04 00:25N 55°38' W 006°12'0 0.0
2018-Jul-03 23:55N 55°38' W 006°12'0 0.0
2018-Jul-03 23:25N 55°38' W 006°12'0 0.0
2018-Jul-03 22:55N 55°38' W 006°12'0 0.0
2018-Jul-03 22:25N 55°38' W 006°12'0 0.0
2018-Jul-03 21:58N 55°38' W 006°12'0 0.0
2018-Jul-03 21:25N 55°38' W 006°12'0 0.0
2018-Jul-03 20:58N 55°38' W 006°12'2 4.0
2018-Jul-03 20:28N 55°36' W 006°11'715.7
2018-Jul-03 20:00N 55°30' W 006°04'816.6
2018-Jul-03 19:30N 55°23' W 005°56'917.3
2018-Jul-03 19:00N 55°16' W 005°46'37 0.8
2018-Jul-01 18:56N 55°43' W 004°60'716.0
2018-Jul-01 18:30N 55°50' W 004°57'815.5
2018-Jul-01 18:00N 55°57' W 004°53'5 0.1
2018-Jun-29 18:21N 55°57' W 004°44'0 0.0
2018-Jun-29 17:57N 55°57' W 004°44'0 0.0
2018-Jun-29 17:21N 55°57' W 004°44'0 0.0
2018-Jun-29 15:15N 55°57' W 004°44'0 0.0
2018-Jun-29 14:51N 55°57' W 004°44'0 0.0
2018-Jun-29 14:27N 55°57' W 004°44'0 0.0
2018-Jun-29 13:57N 55°57' W 004°44'0 0.0
2018-Jun-29 13:27N 55°57' W 004°44'0 0.0
2018-Jun-29 12:57N 55°57' W 004°44'0 0.0
2018-Jun-29 12:27N 55°57' W 004°44'0 0.0
2018-Jun-29 12:00N 55°57' W 004°44'0 0.0
2018-Jun-29 11:27N 55°57' W 004°44'0 0.0
2018-Jun-29 10:57N 55°57' W 004°44'0 0.0
2018-Jun-29 10:30N 55°57' W 004°44'0 0.0
2018-Jun-29 09:57N 55°57' W 004°44'0 0.0
2018-Jun-29 09:27N 55°57' W 004°44'0 0.0
2018-Jun-29 09:00N 55°57' W 004°44'0 0.0
2018-Jun-29 08:30N 55°57' W 004°44'0 0.0
2018-Jun-29 07:57N 55°57' W 004°44'0 0.0
2018-Jun-29 07:30N 55°57' W 004°44'0 0.0
2018-Jun-29 06:57N 55°57' W 004°44'0 0.0
2018-Jun-29 06:27N 55°57' W 004°44'0 0.0
2018-Jun-29 06:00N 55°57' W 004°44'0 0.0
2018-Jun-29 05:30N 55°57' W 004°44'0 0.0
2018-Jun-29 05:00N 55°57' W 004°44'0 0.0
2018-Jun-29 04:30N 55°57' W 004°44'0 0.0
2018-Jun-29 04:00N 55°57' W 004°44'0 0.0
2018-Jun-29 03:30N 55°57' W 004°44'0 0.0
2018-Jun-29 03:00N 55°57' W 004°44'0 0.0
2018-Jun-29 02:30N 55°57' W 004°44'0 0.0
2018-Jun-29 02:00N 55°57' W 004°44'0 0.0
2018-Jun-29 01:30N 55°57' W 004°44'0 0.0
2018-Jun-29 01:00N 55°57' W 004°44'0 0.0
2018-Jun-29 00:30N 55°57' W 004°44'0 0.0
2018-Jun-29 00:00N 55°57' W 004°44'0 0.0
2018-Jun-28 23:24N 55°57' W 004°44'0 0.0
2018-Jun-28 22:51N 55°57' W 004°44'0 0.0
2018-Jun-28 22:27N 55°57' W 004°44'0 0.0
2018-Jun-28 21:57N 55°57' W 004°44'0 0.0
2018-Jun-28 21:27N 55°57' W 004°44'0 0.0
2018-Jun-28 20:57N 55°57' W 004°44'0 0.0
2018-Jun-28 20:30N 55°57' W 004°44'0 0.0
2018-Jun-28 20:00N 55°57' W 004°44'0 0.0
2018-Jun-28 19:30N 55°57' W 004°44'0 0.0
2018-Jun-28 19:00N 55°57' W 004°44'0 0.0
2018-Jun-28 17:27N 55°57' W 004°44'0 0.0
2018-Jun-28 14:57N 55°57' W 004°44'0 0.0
2018-Jun-28 14:27N 55°57' W 004°44'0 0.0
2018-Jun-28 13:57N 55°57' W 004°44'0 0.0
2018-Jun-28 13:30N 55°57' W 004°44'0 0.0
2018-Jun-28 12:57N 55°57' W 004°44'0 0.0
2018-Jun-28 12:30N 55°57' W 004°44'0 0.0
2018-Jun-28 12:00N 55°57' W 004°44'0 0.0
2018-Jun-28 11:27N 55°57' W 004°44'0 0.0
2018-Jun-28 11:00N 55°57' W 004°44'0 0.0
2018-Jun-28 10:21N 55°57' W 004°44'0 0.0
2018-Jun-28 09:57N 55°57' W 004°44'0 0.0
2018-Jun-28 09:30N 55°57' W 004°44'0 0.0
2018-Jun-28 09:00N 55°57' W 004°44'0 0.0
2018-Jun-28 08:30N 55°57' W 004°44'0 0.0
2018-Jun-28 07:57N 55°57' W 004°44'0 0.0
2018-Jun-28 07:30N 55°57' W 004°44'0 0.0
2018-Jun-28 07:00N 55°57' W 004°44'0 0.0
2018-Jun-28 06:27N 55°57' W 004°44'0 0.0
2018-Jun-28 06:00N 55°57' W 004°44'0 0.0
2018-Jun-28 05:30N 55°57' W 004°44'0 0.0
2018-Jun-28 05:00N 55°57' W 004°44'0 0.0
2018-Jun-28 04:30N 55°57' W 004°44'0 0.0
2018-Jun-28 03:57N 55°57' W 004°44'0 0.0
2018-Jun-28 03:27N 55°57' W 004°44'0 0.0
2018-Jun-28 03:00N 55°57' W 004°44'0 0.0
2018-Jun-28 02:27N 55°57' W 004°44'0 0.0
2018-Jun-28 02:00N 55°57' W 004°44'0 0.0
2018-Jun-28 01:30N 55°57' W 004°44'0 0.0
2018-Jun-28 01:00N 55°57' W 004°44'0 0.0
2018-Jun-28 00:27N 55°57' W 004°44'0 0.0
2018-Jun-28 00:00N 55°57' W 004°44'0 0.0
2018-Jun-27 23:30N 55°57' W 004°44'0 0.0
2018-Jun-27 23:00N 55°57' W 004°44'0 0.0
2018-Jun-27 22:30N 55°57' W 004°44'0 0.0
2018-Jun-27 22:00N 55°57' W 004°44'0 0.0
2018-Jun-27 21:30N 55°57' W 004°44'0 0.0
2018-Jun-27 21:00N 55°57' W 004°44'0 0.0
2018-Jun-27 20:30N 55°57' W 004°44'  

Dump ship's entire track history